createdAt,value
2018-03-27T00:00:01.602Z,11.17
2018-03-27T00:02:29.906Z,10.97
2018-03-27T00:04:58.197Z,10.13
2018-03-27T00:07:26.567Z,10.67
2018-03-27T00:09:54.820Z,10.43
2018-03-27T00:12:23.087Z,11.13
2018-03-27T00:14:54.310Z,11.33
2018-03-27T00:17:22.828Z,11.53
2018-03-27T00:19:51.095Z,10.40
2018-03-27T00:22:19.361Z,9.93
2018-03-27T00:24:48.018Z,11.00
2018-03-27T00:27:15.757Z,11.13
2018-03-27T00:29:55.554Z,11.90
2018-03-27T00:32:42.649Z,11.80
2018-03-27T00:35:28.766Z,10.70
2018-03-27T00:38:15.066Z,12.70
2018-03-27T00:40:48.787Z,10.90
2018-03-27T00:43:16.801Z,11.67
2018-03-27T00:45:44.832Z,11.70
2018-03-27T00:48:12.826Z,12.00
2018-03-27T00:50:40.846Z,10.50
2018-03-27T00:53:09.865Z,12.17
2018-03-27T00:55:38.111Z,11.37
2018-03-27T00:58:07.949Z,10.80
2018-03-27T01:00:36.225Z,10.97
2018-03-27T01:03:05.218Z,11.17
2018-03-27T01:05:33.475Z,10.33
2018-03-27T01:08:01.757Z,12.43
2018-03-27T01:10:31.049Z,10.20
2018-03-27T01:13:00.075Z,11.33
2018-03-27T01:15:29.078Z,12.03
2018-03-27T01:17:57.333Z,10.67
2018-03-27T01:20:25.558Z,11.87
2018-03-27T01:22:53.819Z,10.67
2018-03-27T01:25:22.099Z,11.13
2018-03-27T01:27:50.355Z,11.30
2018-03-27T01:30:18.611Z,10.80
2018-03-27T01:32:47.618Z,11.30
2018-03-27T01:35:17.006Z,10.77
2018-03-27T01:37:45.732Z,11.23
2018-03-27T01:40:14.038Z,10.90
2018-03-27T01:42:43.801Z,10.80
2018-03-27T01:45:12.088Z,11.53
2018-03-27T01:47:41.129Z,10.50
2018-03-27T01:50:09.366Z,11.90
2018-03-27T01:52:37.650Z,10.90
2018-03-27T01:55:05.919Z,9.67
2018-03-27T01:57:34.924Z,10.10
2018-03-27T02:00:03.942Z,11.33
2018-03-27T02:02:32.232Z,10.70
2018-03-27T02:05:00.532Z,11.93
2018-03-27T02:07:28.834Z,10.57
2018-03-27T02:09:57.866Z,11.20
2018-03-27T02:12:31.908Z,10.70
2018-03-27T02:15:05.936Z,11.40
2018-03-27T02:17:40.622Z,11.23
2018-03-27T02:20:14.715Z,12.33
2018-03-27T02:22:44.792Z,11.93
2018-03-27T02:25:13.823Z,12.43
2018-03-27T02:27:42.086Z,12.07
2018-03-27T02:30:11.083Z,10.73
2018-03-27T02:32:39.347Z,12.23
2018-03-27T02:35:08.364Z,10.50
2018-03-27T02:37:36.613Z,12.93
2018-03-27T02:40:05.646Z,11.20
2018-03-27T02:42:33.908Z,13.10
2018-03-27T02:45:02.160Z,12.47
2018-03-27T02:47:30.454Z,12.60
2018-03-27T02:49:59.457Z,12.93
2018-03-27T02:52:28.472Z,11.30
2018-03-27T02:54:56.723Z,11.80
2018-03-27T02:57:24.986Z,12.17
2018-03-27T02:59:54.011Z,14.70
2018-03-27T03:02:22.292Z,12.40
2018-03-27T03:04:50.546Z,13.43
2018-03-27T03:07:19.576Z,13.73
2018-03-27T03:09:47.866Z,12.90
2018-03-27T03:12:16.089Z,12.53
2018-03-27T03:14:45.138Z,13.17
2018-03-27T03:17:13.368Z,14.83
2018-03-27T03:19:42.358Z,13.03
2018-03-27T03:22:10.646Z,14.43
2018-03-27T03:24:39.671Z,14.10
2018-03-27T03:27:07.938Z,14.57
2018-03-27T03:29:36.189Z,13.97
2018-03-27T03:32:05.217Z,14.50
2018-03-27T03:34:33.502Z,14.73
2018-03-27T03:37:01.777Z,15.23
2018-03-27T03:39:30.055Z,14.60
2018-03-27T03:41:58.311Z,16.10
2018-03-27T03:44:26.610Z,15.80
2018-03-27T03:46:54.850Z,15.50
2018-03-27T03:49:23.127Z,16.40
2018-03-27T03:51:51.431Z,17.13
2018-03-27T03:54:19.693Z,15.90
2018-03-27T03:56:47.956Z,16.00
2018-03-27T03:59:16.970Z,16.93
2018-03-27T04:01:45.223Z,15.87
2018-03-27T04:04:13.511Z,17.33
2018-03-27T04:06:42.529Z,18.30
2018-03-27T04:09:10.826Z,17.80
2018-03-27T04:11:39.129Z,17.90
2018-03-27T04:14:07.378Z,17.97
2018-03-27T04:16:35.619Z,17.63
2018-03-27T04:19:03.875Z,16.30
2018-03-27T04:21:32.139Z,17.30
2018-03-27T04:24:00.409Z,18.67
2018-03-27T04:26:28.679Z,16.50
2018-03-27T04:28:56.942Z,17.13
2018-03-27T04:31:25.171Z,17.37
2018-03-27T04:33:54.202Z,16.63
2018-03-27T04:36:22.468Z,17.17
2018-03-27T04:38:50.713Z,19.00
2018-03-27T04:41:19.732Z,17.10
2018-03-27T04:43:48.087Z,18.50
2018-03-27T04:46:16.331Z,16.60
2018-03-27T04:48:44.590Z,17.60
2018-03-27T04:51:12.861Z,19.87
2018-03-27T04:53:41.138Z,18.03
2018-03-27T04:56:09.423Z,18.27
2018-03-27T04:58:37.655Z,19.77
2018-03-27T05:01:06.695Z,16.27
2018-03-27T05:03:34.955Z,17.33
2018-03-27T05:06:03.208Z,19.40
2018-03-27T05:08:32.212Z,18.77
2018-03-27T05:11:00.451Z,18.20
2018-03-27T05:13:28.715Z,19.10
2018-03-27T05:15:57.015Z,17.60
2018-03-27T05:18:26.058Z,18.07
2018-03-27T05:20:54.320Z,18.57
2018-03-27T05:23:23.299Z,18.77
2018-03-27T05:25:52.332Z,17.97
2018-03-27T05:28:20.584Z,18.13
2018-03-27T05:30:49.579Z,17.17
2018-03-27T05:33:18.632Z,16.60
2018-03-27T05:35:47.566Z,17.50
2018-03-27T05:38:15.842Z,18.90
2018-03-27T05:40:44.871Z,21.10
2018-03-27T05:43:13.101Z,18.63
2018-03-27T05:45:42.167Z,19.07
2018-03-27T05:48:10.419Z,20.00
2018-03-27T05:50:38.642Z,17.97
2018-03-27T05:53:07.452Z,19.50
2018-03-27T05:55:35.754Z,18.20
2018-03-27T05:58:04.039Z,18.17
2018-03-27T06:00:32.290Z,18.93
2018-03-27T06:03:01.895Z,19.37
2018-03-27T06:05:30.155Z,19.77
2018-03-27T06:07:58.562Z,18.23
2018-03-27T06:10:26.834Z,20.30
2018-03-27T06:12:55.854Z,19.23
2018-03-27T06:15:24.113Z,18.70
2018-03-27T06:17:52.366Z,21.13
2018-03-27T06:20:21.415Z,21.13
2018-03-27T06:22:49.779Z,25.10
2018-03-27T06:25:19.022Z,22.63
2018-03-27T06:27:47.287Z,24.37
2018-03-27T06:30:15.554Z,25.00
2018-03-27T06:32:43.816Z,24.17
2018-03-27T06:35:12.456Z,25.67
2018-03-27T06:37:41.566Z,28.10
2018-03-27T06:40:10.610Z,26.27
2018-03-27T06:42:38.866Z,26.20
2018-03-27T06:45:07.117Z,26.23
2018-03-27T06:47:36.189Z,28.33
2018-03-27T06:50:04.441Z,30.90
2018-03-27T06:52:32.682Z,29.37
2018-03-27T06:55:01.876Z,31.80
2018-03-27T06:57:30.531Z,30.23
2018-03-27T06:59:58.775Z,34.40
2018-03-27T07:02:27.025Z,29.07
2018-03-27T07:04:55.298Z,29.80
2018-03-27T07:07:23.606Z,31.80
2018-03-27T07:09:51.850Z,28.13
2018-03-27T07:12:20.119Z,29.63
2018-03-27T07:14:49.160Z,30.43
2018-03-27T07:17:17.775Z,33.13
2018-03-27T07:19:46.044Z,30.33
2018-03-27T07:22:14.257Z,31.77
2018-03-27T07:24:42.508Z,32.43
2018-03-27T07:27:11.856Z,34.60
2018-03-27T07:29:40.118Z,32.50
2018-03-27T07:32:09.121Z,34.57
2018-03-27T07:34:37.382Z,32.47
2018-03-27T07:37:06.451Z,34.57
2018-03-27T07:39:35.405Z,33.20
2018-03-27T07:42:03.684Z,34.00
2018-03-27T07:44:31.909Z,35.13
2018-03-27T07:47:01.814Z,33.93
2018-03-27T07:49:30.836Z,35.10
2018-03-27T07:51:59.847Z,35.27
2018-03-27T07:54:28.095Z,34.30
2018-03-27T07:56:57.140Z,36.60
2018-03-27T07:59:25.388Z,35.50
2018-03-27T08:01:53.645Z,36.67
2018-03-27T08:04:22.825Z,38.53
2018-03-27T08:06:51.086Z,36.40
2018-03-27T08:09:19.367Z,36.70
2018-03-27T08:11:47.632Z,37.70
2018-03-27T08:14:15.906Z,40.10
2018-03-27T08:16:44.142Z,39.17
2018-03-27T08:19:12.466Z,35.93
2018-03-27T08:21:40.796Z,36.70
2018-03-27T08:24:09.139Z,35.97
2018-03-27T08:26:37.319Z,38.70
2018-03-27T08:29:05.583Z,36.27
2018-03-27T08:31:33.858Z,36.10
2018-03-27T08:34:02.103Z,35.10
2018-03-27T08:36:30.425Z,35.60
2018-03-27T08:38:59.366Z,31.70
2018-03-27T08:41:27.699Z,34.27
2018-03-27T08:43:56.399Z,32.50
2018-03-27T08:46:24.982Z,32.47
2018-03-27T08:48:53.289Z,35.10
2018-03-27T08:51:22.322Z,32.73
2018-03-27T08:53:50.586Z,31.80
2018-03-27T08:56:18.814Z,27.70
2018-03-27T08:58:47.419Z,30.90
2018-03-27T09:01:15.654Z,31.47
2018-03-27T09:03:45.120Z,30.40
2018-03-27T09:06:13.312Z,27.63
2018-03-27T09:08:41.570Z,25.30
2018-03-27T09:11:09.838Z,22.60
2018-03-27T09:13:38.141Z,20.70
2018-03-27T09:16:06.743Z,20.77
2018-03-27T09:18:35.014Z,23.50
2018-03-27T09:21:03.286Z,23.63
2018-03-27T09:23:31.585Z,24.70
2018-03-27T09:25:59.841Z,24.50
2018-03-27T09:28:28.118Z,18.33
2018-03-27T09:30:56.375Z,18.77
2018-03-27T09:33:25.429Z,21.17
2018-03-27T09:35:53.660Z,22.90
2018-03-27T09:38:21.915Z,21.50
2018-03-27T09:40:50.936Z,20.23
2018-03-27T09:43:19.180Z,17.17
2018-03-27T09:45:48.250Z,18.23
2018-03-27T09:48:16.529Z,18.57
2018-03-27T09:50:44.749Z,19.50
2018-03-27T09:53:13.011Z,15.87
2018-03-27T09:55:41.363Z,12.43
2018-03-27T09:58:09.647Z,12.10
2018-03-27T10:00:43.496Z,11.57
2018-03-27T10:03:12.543Z,14.93
2018-03-27T10:05:40.816Z,12.80
2018-03-27T10:08:09.242Z,11.83
2018-03-27T10:10:37.535Z,13.27
2018-03-27T10:13:05.836Z,16.23
2018-03-27T10:15:34.092Z,14.07
2018-03-27T10:18:02.376Z,13.93
2018-03-27T10:20:30.634Z,14.00
2018-03-27T10:22:58.930Z,18.20
2018-03-27T10:25:27.207Z,17.77
2018-03-27T10:27:55.841Z,17.50
2018-03-27T10:30:24.988Z,14.87
2018-03-27T10:32:53.266Z,16.30
2018-03-27T10:35:21.546Z,15.37
2018-03-27T10:37:49.882Z,13.70
2018-03-27T10:40:18.166Z,12.13
2018-03-27T10:42:46.455Z,12.90
2018-03-27T10:45:15.471Z,14.00
2018-03-27T10:47:43.766Z,12.20
2018-03-27T10:50:12.072Z,12.60
2018-03-27T10:52:41.066Z,12.03
2018-03-27T10:55:09.354Z,12.60
2018-03-27T10:57:37.647Z,11.33
2018-03-27T11:00:06.657Z,11.00
2018-03-27T11:02:34.953Z,11.40
2018-03-27T11:05:03.246Z,11.30
2018-03-27T11:07:31.505Z,12.93
2018-03-27T11:09:59.865Z,10.90
2018-03-27T11:12:28.059Z,11.73
2018-03-27T11:14:56.354Z,13.90
2018-03-27T11:17:26.514Z,11.27
2018-03-27T11:19:54.853Z,10.10
2018-03-27T11:22:23.089Z,10.57
2018-03-27T11:24:52.092Z,10.20
2018-03-27T11:27:21.361Z,11.13
2018-03-27T11:29:49.654Z,10.73
2018-03-27T11:32:17.936Z,12.20
2018-03-27T11:34:46.963Z,10.90
2018-03-27T11:37:16.158Z,11.30
2018-03-27T11:39:44.434Z,11.13
2018-03-27T11:42:12.709Z,11.10
2018-03-27T11:44:42.722Z,12.27
2018-03-27T11:47:11.906Z,12.67
2018-03-27T11:49:40.197Z,13.10
2018-03-27T11:52:09.013Z,11.10
2018-03-27T11:54:37.420Z,13.30
2018-03-27T11:57:05.632Z,12.13
2018-03-27T11:59:34.658Z,12.07
2018-03-27T12:02:02.930Z,12.60
2018-03-27T12:04:31.333Z,12.33
2018-03-27T12:07:00.209Z,11.87
2018-03-27T12:09:28.491Z,11.30
2018-03-27T12:11:56.722Z,12.60
2018-03-27T12:14:25.768Z,11.20
2018-03-27T12:16:54.814Z,12.63
2018-03-27T12:19:23.864Z,11.63
2018-03-27T12:21:52.119Z,12.20
2018-03-27T12:24:20.429Z,11.83
2018-03-27T12:26:48.694Z,12.13
2018-03-27T12:29:17.290Z,12.77
2018-03-27T12:31:45.785Z,12.37
2018-03-27T12:34:14.028Z,15.33
2018-03-27T12:36:42.354Z,11.67
2018-03-27T12:39:11.431Z,12.63
2018-03-27T12:41:39.695Z,11.87
2018-03-27T12:44:08.056Z,13.67
2018-03-27T12:46:37.332Z,14.00
2018-03-27T12:49:05.641Z,14.47
2018-03-27T12:51:33.935Z,14.00
2018-03-27T12:54:02.246Z,13.00
2018-03-27T12:56:31.295Z,14.87
2018-03-27T12:58:59.643Z,18.27
2018-03-27T13:01:28.718Z,13.03
2018-03-27T13:03:57.765Z,14.33
2018-03-27T13:06:26.034Z,15.03
2018-03-27T13:08:55.263Z,13.97
2018-03-27T13:11:24.370Z,14.70
2018-03-27T13:13:52.623Z,14.20
2018-03-27T13:16:21.888Z,14.17
2018-03-27T13:18:51.243Z,14.83
2018-03-27T13:21:19.510Z,14.40
2018-03-27T13:23:47.855Z,15.57
2018-03-27T13:26:16.430Z,14.37
2018-03-27T13:28:44.740Z,14.40
2018-03-27T13:31:13.004Z,15.20
2018-03-27T13:33:42.287Z,14.40
2018-03-27T13:36:10.586Z,14.63
2018-03-27T13:38:38.910Z,15.30
2018-03-27T13:41:07.192Z,14.93
2018-03-27T13:43:35.458Z,14.23
2018-03-27T13:46:04.523Z,14.50
2018-03-27T13:48:33.150Z,13.27
2018-03-27T13:51:01.413Z,14.50
2018-03-27T13:53:29.728Z,13.40
2018-03-27T13:55:57.954Z,12.80
2018-03-27T13:58:27.094Z,12.97
2018-03-27T14:00:55.378Z,14.13
2018-03-27T14:03:24.391Z,13.47
2018-03-27T14:05:52.727Z,13.30
2018-03-27T14:08:21.861Z,12.17
2018-03-27T14:10:50.159Z,13.50
2018-03-27T14:13:18.442Z,12.70
2018-03-27T14:15:46.686Z,13.20
2018-03-27T14:18:15.011Z,15.63
2018-03-27T14:20:43.286Z,14.83
2018-03-27T14:23:11.567Z,15.13
2018-03-27T14:25:40.103Z,16.93
2018-03-27T14:28:10.301Z,16.70
2018-03-27T14:30:38.597Z,16.57
2018-03-27T14:33:07.587Z,16.60
2018-03-27T14:35:37.158Z,15.87
2018-03-27T14:38:06.551Z,16.17
2018-03-27T14:40:34.842Z,16.00
2018-03-27T14:43:03.129Z,17.07
2018-03-27T14:45:31.518Z,15.00
2018-03-27T14:47:59.813Z,16.57
2018-03-27T14:50:28.885Z,17.27
2018-03-27T14:52:57.159Z,16.57
2018-03-27T14:55:25.759Z,17.70
2018-03-27T14:57:53.991Z,17.30
2018-03-27T15:00:22.239Z,19.20
2018-03-27T15:02:50.761Z,20.10
2018-03-27T15:05:19.051Z,18.87
2018-03-27T15:07:47.524Z,18.90
2018-03-27T15:10:16.072Z,17.73
2018-03-27T15:12:45.084Z,17.70
2018-03-27T15:15:14.095Z,20.33
2018-03-27T15:17:42.930Z,18.27
2018-03-27T15:20:11.958Z,17.93
2018-03-27T15:22:40.242Z,18.63
2018-03-27T15:25:08.503Z,17.93
2018-03-27T15:27:37.515Z,18.97
2018-03-27T15:30:05.817Z,20.10
2018-03-27T15:32:34.082Z,17.60
2018-03-27T15:35:02.976Z,20.33
2018-03-27T15:37:31.341Z,18.40
2018-03-27T15:39:59.594Z,20.80
2018-03-27T15:42:28.622Z,18.20
2018-03-27T15:44:56.897Z,19.17
2018-03-27T15:47:25.329Z,18.23
2018-03-27T15:49:53.620Z,21.50
2018-03-27T15:52:23.515Z,19.73
2018-03-27T15:54:51.762Z,19.77
2018-03-27T15:57:20.087Z,19.23
2018-03-27T15:59:50.017Z,20.07
2018-03-27T16:02:18.314Z,19.60
2018-03-27T16:04:46.772Z,19.87
2018-03-27T16:07:15.035Z,20.83
2018-03-27T16:09:44.127Z,20.40
2018-03-27T16:12:13.529Z,20.80
2018-03-27T16:14:42.589Z,22.20
2018-03-27T16:17:10.865Z,22.27
2018-03-27T16:19:39.499Z,20.10
2018-03-27T16:22:08.548Z,19.57
2018-03-27T16:24:36.849Z,20.03
2018-03-27T16:27:05.144Z,20.23
2018-03-27T16:29:33.467Z,20.07
2018-03-27T16:32:02.037Z,22.07
2018-03-27T16:34:30.294Z,23.07
2018-03-27T16:36:59.367Z,22.43
2018-03-27T16:39:27.686Z,21.40
2018-03-27T16:41:55.997Z,21.90
2018-03-27T16:44:24.276Z,21.13
2018-03-27T16:46:52.569Z,21.43
2018-03-27T16:49:20.871Z,22.77
2018-03-27T16:51:49.168Z,22.63
2018-03-27T16:54:17.449Z,21.80
2018-03-27T16:56:46.358Z,21.73
2018-03-27T16:59:14.618Z,21.30
2018-03-27T17:01:44.071Z,20.20
2018-03-27T17:04:13.227Z,22.10
2018-03-27T17:06:42.286Z,21.30
2018-03-27T17:09:10.885Z,23.23
2018-03-27T17:11:39.945Z,21.13
2018-03-27T17:14:10.179Z,20.43
2018-03-27T17:16:40.243Z,18.70
2018-03-27T17:19:08.626Z,18.33
2018-03-27T17:21:38.128Z,17.37
2018-03-27T17:24:07.165Z,18.73
2018-03-27T17:26:35.503Z,16.87
2018-03-27T17:29:03.841Z,18.70
2018-03-27T17:31:32.172Z,15.40
2018-03-27T17:34:01.098Z,17.60
2018-03-27T17:36:30.397Z,18.80
2018-03-27T17:38:58.685Z,17.17
2018-03-27T17:41:27.158Z,19.47
2018-03-27T17:43:56.266Z,16.93
2018-03-27T17:46:24.615Z,16.83
2018-03-27T17:48:53.777Z,16.40
2018-03-27T17:51:23.043Z,16.00
2018-03-27T17:53:51.298Z,16.20
2018-03-27T17:56:19.600Z,15.33
2018-03-27T17:58:48.756Z,14.50
2018-03-27T18:01:18.096Z,16.80
2018-03-27T18:03:46.420Z,14.43
2018-03-27T18:06:15.470Z,15.90
2018-03-27T18:08:44.071Z,15.00
2018-03-27T18:11:12.317Z,15.93
2018-03-27T18:13:40.643Z,15.37
2018-03-27T18:16:09.702Z,15.33
2018-03-27T18:18:38.705Z,17.17
2018-03-27T18:21:06.971Z,13.90
2018-03-27T18:23:35.293Z,16.10
2018-03-27T18:26:03.604Z,16.40
2018-03-27T18:28:32.081Z,16.73
2018-03-27T18:31:00.424Z,15.20
2018-03-27T18:33:28.845Z,16.77
2018-03-27T18:35:57.936Z,17.30
2018-03-27T18:38:26.294Z,15.40
2018-03-27T18:40:54.562Z,15.20
2018-03-27T18:43:23.328Z,17.23
2018-03-27T18:45:51.624Z,16.10
2018-03-27T18:48:19.943Z,15.33
2018-03-27T18:50:48.698Z,16.77
2018-03-27T18:53:17.008Z,17.93
2018-03-27T18:55:45.986Z,17.50
2018-03-27T18:58:14.375Z,16.83
2018-03-27T19:00:42.715Z,16.27
2018-03-27T19:03:11.319Z,17.87
2018-03-27T19:05:40.911Z,17.97
2018-03-27T19:08:09.238Z,17.00
2018-03-27T19:10:37.512Z,19.07
2018-03-27T19:13:05.803Z,15.90
2018-03-27T19:15:34.151Z,15.20
2018-03-27T19:18:02.440Z,16.70
2018-03-27T19:20:30.811Z,13.93
2018-03-27T19:23:00.768Z,13.60
2018-03-27T19:25:29.085Z,12.77
2018-03-27T19:27:57.663Z,11.60
2018-03-27T19:30:25.970Z,13.20
2018-03-27T19:32:55.679Z,11.63
2018-03-27T19:35:25.725Z,10.43
2018-03-27T19:37:54.336Z,12.20
2018-03-27T19:40:23.447Z,14.80
2018-03-27T19:42:51.741Z,13.87
2018-03-27T19:45:20.751Z,12.50
2018-03-27T19:47:48.994Z,12.37
2018-03-27T19:50:18.202Z,12.03
2018-03-27T19:52:46.494Z,11.50
2018-03-27T19:55:15.562Z,13.07
2018-03-27T19:57:44.871Z,11.60
2018-03-27T20:00:14.102Z,12.67
2018-03-27T20:02:42.472Z,12.00
2018-03-27T20:05:10.734Z,12.27
2018-03-27T20:07:39.002Z,11.03
2018-03-27T20:10:07.308Z,11.27
2018-03-27T20:12:37.201Z,9.87
2018-03-27T20:15:05.661Z,12.30
2018-03-27T20:17:34.279Z,12.77
2018-03-27T20:20:02.561Z,12.53
2018-03-27T20:22:30.912Z,11.03
2018-03-27T20:24:59.171Z,11.37
2018-03-27T20:27:27.426Z,12.33
2018-03-27T20:29:55.712Z,11.93
2018-03-27T20:32:23.955Z,11.63
2018-03-27T20:34:53.851Z,11.40
2018-03-27T20:37:22.163Z,16.20
2018-03-27T20:39:51.284Z,12.80
2018-03-27T20:42:20.225Z,11.73
2018-03-27T20:44:50.148Z,11.40
2018-03-27T20:47:18.446Z,10.80
2018-03-27T20:49:47.678Z,11.80
2018-03-27T20:52:16.051Z,11.47
2018-03-27T20:54:44.334Z,11.30
2018-03-27T20:57:12.665Z,10.73
2018-03-27T20:59:41.712Z,11.83
2018-03-27T21:02:09.994Z,11.20
2018-03-27T21:04:38.246Z,11.10
2018-03-27T21:07:07.298Z,10.00
2018-03-27T21:09:35.654Z,10.97
2018-03-27T21:12:03.982Z,11.13
2018-03-27T21:14:33.766Z,10.53
2018-03-27T21:17:02.036Z,11.70
2018-03-27T21:19:30.302Z,11.77
2018-03-27T21:21:59.371Z,11.30
2018-03-27T21:24:27.626Z,11.57
2018-03-27T21:26:56.779Z,11.43
2018-03-27T21:29:25.068Z,10.40
2018-03-27T21:31:54.424Z,11.00
2018-03-27T21:34:22.674Z,11.13
2018-03-27T21:36:52.281Z,9.90
2018-03-27T21:39:21.291Z,9.87
2018-03-27T21:41:49.853Z,10.70
2018-03-27T21:44:18.973Z,10.13
2018-03-27T21:46:47.302Z,11.40
2018-03-27T21:49:15.547Z,10.20
2018-03-27T21:51:44.653Z,10.33
2018-03-27T21:54:13.668Z,9.43
2018-03-27T21:56:41.975Z,8.90
2018-03-27T21:59:11.911Z,9.00
2018-03-27T22:01:41.489Z,9.43
2018-03-27T22:04:10.284Z,8.90
2018-03-27T22:06:40.418Z,9.07
2018-03-27T22:09:09.735Z,8.70
2018-03-27T22:11:38.501Z,8.20
2018-03-27T22:14:07.638Z,8.00
2018-03-27T22:16:35.893Z,8.97
2018-03-27T22:19:05.045Z,8.93
2018-03-27T22:21:33.318Z,8.73
2018-03-27T22:24:01.594Z,8.00
2018-03-27T22:26:30.115Z,8.40
2018-03-27T22:28:59.106Z,6.83
2018-03-27T22:31:28.465Z,7.73
2018-03-27T22:33:57.967Z,7.73
2018-03-27T22:36:26.286Z,6.90
2018-03-27T22:38:55.531Z,7.83
2018-03-27T22:41:24.306Z,9.20
2018-03-27T22:43:53.321Z,7.80
2018-03-27T22:46:21.558Z,7.77
2018-03-27T22:48:50.573Z,8.47
2018-03-27T22:51:18.854Z,7.70
2018-03-27T22:53:47.137Z,7.70
2018-03-27T22:56:15.413Z,7.67
2018-03-27T22:58:43.660Z,8.23
2018-03-27T23:01:11.953Z,8.83
2018-03-27T23:03:40.746Z,7.60
2018-03-27T23:06:09.030Z,9.17
2018-03-27T23:08:37.252Z,7.63
2018-03-27T23:11:05.742Z,7.67
2018-03-27T23:13:33.967Z,8.97
2018-03-27T23:16:02.419Z,7.50
2018-03-27T23:18:32.147Z,7.73
2018-03-27T23:21:01.453Z,8.27
2018-03-27T23:23:30.530Z,8.17
2018-03-27T23:25:58.769Z,9.33
2018-03-27T23:28:26.987Z,9.53
2018-03-27T23:30:56.041Z,9.30
2018-03-27T23:33:24.287Z,9.30
2018-03-27T23:35:52.554Z,9.07
2018-03-27T23:38:20.829Z,8.77
2018-03-27T23:40:49.116Z,9.90
2018-03-27T23:43:18.124Z,9.73
2018-03-27T23:45:46.399Z,9.50
2018-03-27T23:48:15.383Z,9.97
2018-03-27T23:50:43.646Z,9.53
2018-03-27T23:53:12.906Z,10.93
2018-03-27T23:55:41.151Z,9.40
2018-03-27T23:58:09.414Z,8.20
